Terminal Aerodrome Forecast
Issued by NWS Bismarck, ND

Home | Current Version | Previous Version | Graphics & Text | Print | Product List | Glossary On
Versions: 1 2 3 4 5 6 7 8 9 10 11 12 13 14 15 16 17 18
846
FTUS43 KBIS 261402 AAA
TAFBIS
TAF AMD
KBIS 261402Z 2614/2712 07007KT P6SM OVC006
      TEMPO 2615/2617 2SM BR OVC006
     FM261900 07008KT P6SM OVC015
     FM270000 07009KT P6SM VCSH OVC015
     FM270600 06006KT P6SM -RA OVC006=

USA.gov is the U.S. government's official web portal to all federal, state and local government web resources and services.